Time;durP1;ratioP1;P1;durP2;ratioP2;P2;SDS_P1;SDS_P2;PMS_P1;PMS_P2;Temp;Humidity;BMP_temperature;BMP_pressure;BME280_temperature;BME280_humidity;BME280_pressure;Samples;Min_cycle;Max_cycle;Signal;HPM_P1;HPM_P2
2023/08/10 00:02:12;;;;;;;10.80;9.43;;;;;;;28.14;52.49;100730.59;21080034;28;20044;-64
2023/08/10 00:12:14;;;;;;;9.77;8.73;;;;;;;28.15;52.48;100748.28;21077411;28;20036;-64
2023/08/10 00:22:15;;;;;;;10.10;8.52;;;;;;;28.18;52.16;100764.47;21078236;28;20480;-63
2023/08/10 00:32:19;;;;;;;9.98;8.55;;;;;;;28.22;52.27;100774.72;21077430;28;20051;-63
2023/08/10 00:42:21;;;;;;;9.48;8.50;;;;;;;28.25;52.09;100776.06;21077198;28;20055;-63
2023/08/10 00:52:22;;;;;;;9.85;8.85;;;;;;;28.27;52.02;100785.84;21076742;28;20028;-62
2023/08/10 01:02:24;;;;;;;9.80;8.80;;;;;;;28.28;51.88;100800.72;21076023;28;20040;-64
2023/08/10 01:12:34;;;;;;;10.15;9.05;;;;;;;28.29;51.83;100811.63;21075385;28;20044;-63
2023/08/10 01:22:56;;;;;;;9.23;8.20;;;;;;;28.28;52.07;100815.63;21080901;28;20044;-63
2023/08/10 01:32:58;;;;;;;9.13;8.18;;;;;;;28.33;51.88;100823.88;21091968;28;20032;-63
2023/08/10 01:42:59;;;;;;;9.90;8.93;;;;;;;28.35;51.75;100838.47;21090800;28;20055;-63
2023/08/10 01:53:10;;;;;;;9.88;8.88;;;;;;;28.38;51.66;100869.94;21090547;28;20028;-65
2023/08/10 02:03:11;;;;;;;9.57;8.32;;;;;;;28.39;51.82;100865.94;21089540;28;20101;-62
2023/08/10 02:13:13;;;;;;;9.73;8.73;;;;;;;28.41;51.63;100867.28;21087534;28;20059;-63
2023/08/10 02:23:15;;;;;;;9.80;8.82;;;;;;;28.44;51.51;100866.59;21086648;28;20380;-63
2023/08/10 02:33:16;;;;;;;8.68;7.88;;;;;;;28.39;51.65;100865.94;21085617;28;20066;-63
2023/08/10 02:43:18;;;;;;;9.35;8.45;;;;;;;28.42;51.60;100862.47;21068008;28;20066;-62
2023/08/10 02:53:20;;;;;;;8.48;7.57;;;;;;;28.45;51.62;100853.34;21085992;28;20161;-62
2023/08/10 03:03:22;;;;;;;8.57;7.75;;;;;;;28.46;51.52;100838.13;21083489;28;20036;-64
2023/08/10 03:13:24;;;;;;;9.20;8.30;;;;;;;28.47;51.24;100842.59;21083729;28;20113;-63
2023/08/10 03:23:25;;;;;;;8.35;7.55;;;;;;;28.49;51.46;100837.44;21083605;28;20494;-63
2023/08/10 03:33:26;;;;;;;8.48;7.57;;;;;;;28.46;51.56;100815.63;21084001;28;20035;-63
2023/08/10 03:43:28;;;;;;;7.95;7.15;;;;;;;28.52;51.43;100825.53;21081011;28;20391;-63
2023/08/10 03:53:29;;;;;;;9.50;7.95;;;;;;;28.54;51.49;100806.28;21081097;28;20032;-63
2023/08/10 04:03:31;;;;;;;8.20;7.40;;;;;;;28.53;51.57;100818.72;21080633;28;20048;-63
2023/08/10 04:13:32;;;;;;;8.88;7.97;;;;;;;28.50;51.52;100802.50;21079924;28;20472;-63
2023/08/10 04:23:35;;;;;;;8.57;7.78;;;;;;;28.52;51.25;100801.00;21078467;28;20090;-62
2023/08/10 04:33:37;;;;;;;8.25;7.32;;;;;;;28.43;51.48;100788.13;21077917;28;20073;-62
2023/08/10 04:43:38;;;;;;;8.27;7.47;;;;;;;28.53;51.33;100810.28;21076826;28;20043;-62
2023/08/10 04:53:39;;;;;;;8.10;7.22;;;;;;;28.49;51.41;100801.66;21076815;28;20392;-63
2023/08/10 05:03:41;;;;;;;7.80;7.10;;;;;;;28.56;51.34;100798.34;21075760;28;20089;-62
2023/08/10 05:13:43;;;;;;;8.15;6.85;;;;;;;28.58;51.27;100779.94;21075387;28;20051;-62
2023/08/10 05:23:44;;;;;;;8.25;7.40;;;;;;;28.42;51.25;100752.72;21075686;28;20090;-63
2023/08/10 05:33:45;;;;;;;7.65;6.85;;;;;;;28.58;51.21;100770.69;21074367;28;20036;-64
2023/08/10 05:43:47;;;;;;;7.22;6.53;;;;;;;28.54;51.30;100744.34;21075106;28;20036;-63
2023/08/10 05:53:52;;;;;;;7.78;6.97;;;;;;;28.56;51.53;100739.22;21073636;28;20048;-63
2023/08/10 06:03:53;;;;;;;7.68;6.80;;;;;;;28.55;51.35;100738.41;21073168;28;20098;-63
2023/08/10 06:13:54;;;;;;;7.40;6.70;;;;;;;28.59;51.30;100724.47;21084651;28;20533;-62
2023/08/10 06:23:56;;;;;;;7.03;6.32;;;;;;;28.58;51.21;100720.00;21087539;28;20043;-62
2023/08/10 06:33:58;;;;;;;7.10;6.43;;;;;;;28.58;51.17;100722.81;21086357;28;20446;-63
2023/08/10 06:43:59;;;;;;;6.85;6.15;;;;;;;28.61;51.16;100711.72;21086207;28;20044;-63
2023/08/10 06:54:03;;;;;;;7.13;6.43;;;;;;;28.63;51.17;100706.56;21086431;28;20357;-63
2023/08/10 07:04:05;;;;;;;6.65;6.05;;;;;;;28.61;51.14;100677.09;21085034;28;20048;-63
2023/08/10 07:14:06;;;;;;;6.65;5.80;;;;;;;28.60;51.05;100681.09;21083477;28;20059;-63
2023/08/10 07:24:07;;;;;;;6.88;6.18;;;;;;;28.61;51.04;100677.09;21081543;28;20104;-63
2023/08/10 07:34:10;;;;;;;6.82;6.13;;;;;;;28.59;50.97;100673.78;21081521;28;20048;-64
2023/08/10 07:44:11;;;;;;;6.70;6.03;;;;;;;28.52;51.01;100654.63;21081555;28;20051;-63
2023/08/10 07:54:16;;;;;;;7.05;6.35;;;;;;;28.62;50.94;100661.84;21080280;28;20036;-62
2023/08/10 08:04:17;;;;;;;6.30;5.70;;;;;;;28.57;50.89;100643.16;21079693;28;20044;-62
2023/08/10 08:14:19;;;;;;;6.95;6.25;;;;;;;28.52;51.04;100628.47;21078130;28;20040;-63
2023/08/10 08:24:27;;;;;;;6.68;6.07;;;;;;;28.62;50.96;100644.97;21078565;28;20032;-63
2023/08/10 08:34:31;;;;;;;6.53;5.88;;;;;;;28.62;50.85;100616.81;21076589;28;20369;-62
2023/08/10 08:44:32;;;;;;;6.53;5.93;;;;;;;28.61;51.06;100621.63;21077340;28;20392;-63
2023/08/10 08:54:33;;;;;;;6.20;5.60;;;;;;;28.62;50.89;100603.56;21076449;28;20047;-63
2023/08/10 09:04:35;;;;;;;6.03;5.43;;;;;;;28.62;50.96;100608.38;21075881;28;20079;-63
2023/08/10 09:14:36;;;;;;;5.88;5.35;;;;;;;28.54;50.92;100572.66;21075087;28;20444;-62
2023/08/10 09:24:38;;;;;;;5.93;5.43;;;;;;;28.60;50.95;100605.09;21075286;28;20387;-63
2023/08/10 09:34:47;;;;;;;6.25;5.65;;;;;;;28.61;50.76;100609.53;21075034;28;20039;-65
2023/08/10 09:44:51;;;;;;;6.10;5.60;;;;;;;28.62;50.90;100588.66;21083528;28;20036;-64
2023/08/10 09:54:54;;;;;;;5.55;5.05;;;;;;;28.61;50.75;100587.03;21090571;28;20028;-64
2023/08/10 10:04:58;;;;;;;6.20;5.57;;;;;;;28.61;50.89;100598.28;21089164;28;20117;-63
2023/08/10 10:15:01;;;;;;;6.18;5.65;;;;;;;28.60;50.90;100607.91;21087872;28;20047;-63
2023/08/10 10:25:02;;;;;;;5.70;5.20;;;;;;;28.60;50.90;100579.75;21087257;28;20036;-65
2023/08/10 10:35:04;;;;;;;6.13;5.53;;;;;;;28.54;50.90;100567.03;21086470;28;20032;-64
2023/08/10 10:45:12;;;;;;;6.13;5.53;;;;;;;28.59;50.69;100594.97;21085873;28;20089;-63
2023/08/10 10:55:13;;;;;;;6.55;5.93;;;;;;;28.57;50.85;100586.88;21085130;28;20062;-63
2023/08/10 11:05:17;;;;;;;6.15;5.55;;;;;;;28.60;50.82;100571.31;21084055;28;20043;-63
2023/08/10 11:15:18;;;;;;;5.90;5.38;;;;;;;28.55;50.77;100563.06;21083359;28;20035;-63
2023/08/10 11:25:25;;;;;;;5.20;4.78;;;;;;;28.48;50.83;100571.22;21082056;28;20032;-64
2023/08/10 11:35:26;;;;;;;6.07;5.38;;;;;;;28.60;50.70;100574.13;21064688;28;20048;-63
2023/08/10 11:45:27;;;;;;;6.38;5.78;;;;;;;28.61;50.71;100564.50;21080958;28;20081;-64
2023/08/10 11:55:29;;;;;;;5.47;4.97;;;;;;;28.60;50.76;100545.97;21080408;28;20039;-63
2023/08/10 12:05:56;;;;;;;5.47;4.97;;;;;;;28.54;50.93;100550.13;21078446;28;20040;-63
2023/08/10 12:16:00;;;;;;;;;;;;;;;28.60;50.73;100545.97;21079447;28;20074;-63
2023/08/10 12:26:02;;;;;;;5.75;5.25;;;;;;;28.62;50.59;100552.06;21078448;28;20338;-63
2023/08/10 12:36:03;;;;;;;5.85;5.32;;;;;;;28.63;50.75;100562.16;21077488;28;20094;-63
2023/08/10 12:46:06;;;;;;;5.85;5.35;;;;;;;28.64;50.76;100569.44;21077133;28;20106;-62
2023/08/10 12:56:07;;;;;;;5.93;5.32;;;;;;;28.65;50.58;100575.91;21076438;28;20035;-62
2023/08/10 13:06:09;;;;;;;5.55;5.05;;;;;;;28.66;50.44;100564.28;21075330;28;20040;-63
2023/08/10 13:16:10;;;;;;;5.53;5.03;;;;;;;28.64;50.76;100558.19;21080072;28;20052;-63
2023/08/10 13:26:12;;;;;;;5.78;5.20;;;;;;;28.66;50.64;100566.28;21091974;28;20040;-63
2023/08/10 13:36:14;;;;;;;5.95;5.35;;;;;;;28.65;50.48;100576.72;21092634;28;20027;-63
2023/08/10 13:46:15;;;;;;;5.70;5.13;;;;;;;28.63;50.86;100562.97;21091421;28;20044;-64
2023/08/10 13:56:16;;;;;;;5.70;5.20;;;;;;;28.57;50.84;100546.63;21089339;28;20491;-64
2023/08/10 14:06:18;;;;;;;5.47;4.97;;;;;;;28.65;50.84;100553.38;21089524;28;20086;-64
2023/08/10 14:16:19;;;;;;;5.53;5.03;;;;;;;28.66;50.56;100541.75;21088072;28;20106;-63
2023/08/10 14:26:20;;;;;;;5.50;5.00;;;;;;;28.63;50.85;100534.81;21087094;28;20044;-64
2023/08/10 14:36:22;;;;;;;5.25;4.75;;;;;;;28.64;50.76;100530.03;21087307;28;20036;-64
2023/08/10 14:46:26;;;;;;;5.30;4.82;;;;;;;28.62;50.86;100513.47;21086879;28;20036;-64
2023/08/10 14:56:28;;;;;;;5.45;4.95;;;;;;;28.64;50.91;100513.16;21085856;28;20067;-63
2023/08/10 15:06:30;;;;;;;5.43;4.93;;;;;;;28.63;50.68;100503.03;21084601;28;20078;-62
2023/08/10 15:16:31;;;;;;;5.25;4.75;;;;;;;28.62;51.02;100512.66;21083435;28;20052;-64
2023/08/10 15:26:33;;;;;;;5.50;5.00;;;;;;;28.41;50.98;100472.41;21082194;28;20117;-63
2023/08/10 15:36:37;;;;;;;6.38;5.78;;;;;;;28.59;51.01;100488.84;21082234;28;20066;-63
2023/08/10 15:46:38;;;;;;;5.05;4.65;;;;;;;28.62;50.87;100464.78;21080321;28;20540;-63
2023/08/10 15:56:40;;;;;;;5.72;5.20;;;;;;;28.61;51.02;100457.53;21080414;28;20486;-64
2023/08/10 16:06:51;;;;;;;5.70;5.18;;;;;;;28.53;51.06;100453.59;21151362;27;20884;-64
2023/08/10 16:16:52;;;;;;;5.65;5.15;;;;;;;28.33;48.83;100463.69;21150468;28;20040;-63
2023/08/10 16:26:54;;;;;;;5.10;4.63;;;;;;;27.68;48.86;100439.78;21149519;28;20031;-63
2023/08/10 16:36:55;;;;;;;5.75;5.22;;;;;;;26.95;48.58;100363.25;21149441;28;20040;-63
2023/08/10 16:46:56;;;;;;;5.55;5.05;;;;;;;27.14;47.75;100407.81;21147581;28;20081;-62
2023/08/10 16:56:58;;;;;;;5.95;5.35;;;;;;;26.94;47.95;100404.53;21147481;28;20024;-62
2023/08/10 17:06:59;;;;;;;6.28;5.68;;;;;;;26.74;47.77;100380.81;21146128;28;20081;-62
2023/08/10 17:17:03;;;;;;;5.53;5.03;;;;;;;26.57;47.52;100364.84;21095014;28;20048;-63
2023/08/10 17:27:05;;;;;;;5.97;5.38;;;;;;;26.42;47.74;100333.63;21088537;28;20036;-62
2023/08/10 17:37:06;;;;;;;6.68;6.07;;;;;;;26.57;52.90;100313.47;21087686;28;20040;-63
2023/08/10 17:47:08;;;;;;;7.50;6.80;;;;;;;26.92;53.70;100310.56;21086803;28;20028;-63
2023/08/10 17:57:09;;;;;;;6.88;6.18;;;;;;;27.18;53.30;100339.38;21086578;28;20044;-63
2023/08/10 18:07:11;;;;;;;6.60;5.90;;;;;;;27.33;52.85;100310.69;21084651;28;20040;-63
2023/08/10 18:17:13;;;;;;;6.80;6.15;;;;;;;27.41;52.48;100285.72;21084487;28;20036;-63
2023/08/10 18:27:15;;;;;;;7.13;6.53;;;;;;;27.51;52.20;100262.81;21082408;28;20032;-63
2023/08/10 18:37:17;;;;;;;6.28;5.68;;;;;;;27.60;52.10;100260.78;21080730;28;20044;-62
2023/08/10 18:47:19;;;;;;;6.85;6.20;;;;;;;27.68;52.17;100233.78;21080799;28;20384;-63
2023/08/10 18:57:20;;;;;;;6.68;6.07;;;;;;;27.73;52.14;100233.59;21079841;28;20073;-62
2023/08/10 19:07:22;;;;;;;7.70;6.00;;;;;;;27.78;52.03;100228.56;21077368;28;20116;-63
2023/08/10 19:17:23;;;;;;;7.03;6.32;;;;;;;27.81;52.07;100205.41;21077927;28;20040;-63
2023/08/10 19:27:33;;;;;;;8.07;6.38;;;;;;;27.84;51.90;100170.13;21079083;28;20074;-66
2023/08/10 19:37:35;;;;;;;6.93;6.30;;;;;;;27.92;51.95;100159.97;21058443;28;20097;-63
2023/08/10 19:47:36;;;;;;;7.82;6.03;;;;;;;27.95;52.01;100150.81;21063926;28;20802;-62
2023/08/10 19:57:38;;;;;;;8.07;5.93;;;;;;;27.97;51.73;100135.25;21077555;28;20036;-63
2023/08/10 20:07:40;;;;;;;6.90;6.20;;;;;;;28.00;51.92;100116.88;21075872;28;20520;-63
2023/08/10 20:17:41;;;;;;;6.50;5.90;;;;;;;27.99;51.75;100101.16;21077095;28;20078;-63
2023/08/10 20:27:43;;;;;;;8.45;6.47;;;;;;;28.01;51.78;100085.56;21076343;28;20357;-63
2023/08/10 20:37:44;;;;;;;8.93;6.43;;;;;;;28.03;51.63;100104.91;21075752;28;20101;-63
2023/08/10 20:47:46;;;;;;;6.75;5.97;;;;;;;28.09;51.43;100097.91;21080406;28;20082;-63
2023/08/10 20:57:50;;;;;;;12.27;6.32;;;;;;;28.12;51.55;100083.13;21091092;28;20066;-63
2023/08/10 21:07:52;;;;;;;11.68;6.53;;;;;;;28.14;51.48;100079.97;21089095;28;20036;-64
2023/08/10 21:17:54;;;;;;;8.65;6.30;;;;;;;28.16;51.53;100064.38;21089041;28;20426;-63
2023/08/10 21:27:55;;;;;;;7.05;6.35;;;;;;;28.14;51.51;100066.72;21087546;28;20070;-64
2023/08/10 21:37:57;;;;;;;8.55;6.03;;;;;;;28.18;51.50;100078.91;21079641;28;20044;-62
2023/08/10 21:47:58;;;;;;;7.50;6.30;;;;;;;28.21;51.54;100083.00;21016270;28;20024;-62
2023/08/10 21:57:59;;;;;;;8.65;6.35;;;;;;;28.25;51.40;100106.44;21080389;28;20039;-63
2023/08/10 22:08:01;;;;;;;8.73;6.25;;;;;;;28.24;51.63;100100.00;21081402;28;20487;-62
2023/08/10 22:18:03;;;;;;;10.82;6.07;;;;;;;28.28;51.84;100112.22;21081407;28;20093;-62
2023/08/10 22:28:04;;;;;;;12.10;6.03;;;;;;;28.28;52.39;100126.28;21064486;28;20074;-62
2023/08/10 22:38:06;;;;;;;19.67;7.20;;;;;;;28.32;52.71;100141.28;21070774;28;20040;-63
2023/08/10 22:48:07;;;;;;;23.50;6.72;;;;;;;28.29;52.92;100147.59;21072038;28;20448;-63
2023/08/10 22:58:09;;;;;;;12.43;7.40;;;;;;;28.34;53.07;100160.63;21064931;28;20028;-63
2023/08/10 23:08:11;;;;;;;19.30;7.40;;;;;;;28.34;53.27;100174.69;21068807;28;20039;-62
2023/08/10 23:18:12;;;;;;;16.45;7.10;;;;;;;28.34;53.55;100169.91;21078306;28;20052;-63
2023/08/10 23:28:15;;;;;;;12.63;6.85;;;;;;;28.32;53.55;100157.34;21063426;28;20016;-63
2023/08/10 23:38:17;;;;;;;21.98;7.63;;;;;;;28.39;53.60;100170.84;21075495;28;20086;-63
2023/08/10 23:48:18;;;;;;;13.18;6.70;;;;;;;28.39;53.72;100163.22;21075520;28;20039;-62
2023/08/10 23:58:20;;;;;;;17.73;6.65;;;;;;;28.39;53.67;100173.66;21065750;28;20048;-62
